Time;durP1;ratioP1;P1;durP2;ratioP2;P2;SDS_P1;SDS_P2;PMS_P1;PMS_P2;Temp;Humidity;BMP_temperature;BMP_pressure;BME280_temperature;BME280_humidity;BME280_pressure;Samples;Min_cycle;Max_cycle;Signal;HPM_P1;HPM_P2
2023/06/04 00:00:13;;;;;;;12.05;6.15;;;;;;;;;;6278181;22;20081;-82
2023/06/04 00:02:39;;;;;;;11.40;6.68;;;;;;;;;;6278281;22;20007;-81
2023/06/04 00:05:06;;;;;;;16.08;7.43;;;;;;;;;;6252692;22;20388;-82
2023/06/04 00:07:32;;;;;;;15.60;8.15;;;;;;;;;;6277915;22;20007;-82
2023/06/04 00:09:58;;;;;;;10.93;7.57;;;;;;;;;;6277047;22;20007;-82
2023/06/04 00:12:24;;;;;;;14.43;7.95;;;;;;;;;;6278314;22;20065;-82
2023/06/04 00:14:50;;;;;;;13.95;8.57;;;;;;;;;;6252492;22;20088;-81
2023/06/04 00:17:16;;;;;;;13.32;7.30;;;;;;;;;;6277985;22;20012;-82
2023/06/04 00:19:42;;;;;;;12.48;9.07;;;;;;;;;;6278390;22;20007;-82
2023/06/04 00:22:08;;;;;;;10.48;7.78;;;;;;;;;;6252532;22;20067;-82
2023/06/04 00:24:35;;;;;;;13.25;8.43;;;;;;;;;;6277782;22;20022;-82
2023/06/04 00:27:01;;;;;;;13.00;10.52;;;;;;;;;;6278393;22;20082;-82
2023/06/04 00:29:27;;;;;;;11.77;7.20;;;;;;;;;;6252382;22;20046;-82
2023/06/04 00:31:53;;;;;;;16.85;8.00;;;;;;;;;;6252335;22;20508;-82
2023/06/04 00:34:19;;;;;;;14.73;8.77;;;;;;;;;;6278148;22;20021;-82
2023/06/04 00:36:45;;;;;;;12.10;9.00;;;;;;;;;;6252338;22;20022;-82
2023/06/04 00:39:11;;;;;;;12.30;7.47;;;;;;;;;;6251744;22;20034;-82
2023/06/04 00:41:37;;;;;;;15.60;11.27;;;;;;;;;;6252382;22;20034;-82
2023/06/04 00:44:06;;;;;;;11.80;9.00;;;;;;;;;;6277716;22;20098;-82
2023/06/04 00:46:32;;;;;;;18.13;11.32;;;;;;;;;;6252125;22;20017;-81
2023/06/04 00:48:58;;;;;;;16.42;9.80;;;;;;;;;;6251972;22;20450;-82
2023/06/04 00:51:24;;;;;;;15.68;10.15;;;;;;;;;;6277551;22;20011;-82
2023/06/04 00:53:51;;;;;;;12.00;8.70;;;;;;;;;;6304319;22;20053;-82
2023/06/04 00:56:17;;;;;;;12.35;9.85;;;;;;;;;;6277811;22;20019;-82
2023/06/04 00:58:46;;;;;;;18.65;9.10;;;;;;;;;;6304901;22;20023;-82
2023/06/04 01:01:17;;;;;;;13.93;10.40;;;;;;;;;;6277907;22;20011;-81
2023/06/04 01:03:46;;;;;;;18.98;14.65;;;;;;;;;;6251956;22;20029;-82
2023/06/04 01:06:12;;;;;;;15.98;11.60;;;;;;;;;;6276994;22;20038;-82
2023/06/04 01:08:42;;;;;;;19.25;8.90;;;;;;;;;;6277427;22;20008;-82
2023/06/04 01:11:08;;;;;;;11.70;10.05;;;;;;;;;;6251975;22;20011;-82
2023/06/04 01:13:34;;;;;;;13.40;8.05;;;;;;;;;;6277487;22;20015;-82
2023/06/04 01:16:01;;;;;;;15.60;8.73;;;;;;;;;;6277945;22;20011;-82
2023/06/04 01:18:28;;;;;;;13.57;9.93;;;;;;;;;;6277331;22;20046;-82
2023/06/04 01:21:09;;;;;;;14.45;11.57;;;;;;;;;;6276698;22;20011;-82
2023/06/04 01:23:38;;;;;;;15.18;10.15;;;;;;;;;;6277309;22;20019;-82
2023/06/04 01:26:05;;;;;;;15.73;8.32;;;;;;;;;;6305006;22;20069;-82
2023/06/04 01:28:33;;;;;;;15.13;10.55;;;;;;;;;;6277546;22;20460;-82
2023/06/04 01:31:01;;;;;;;13.82;10.60;;;;;;;;;;6305048;22;20011;-82
2023/06/04 01:33:27;;;;;;;18.05;9.60;;;;;;;;;;6277307;22;20026;-82
2023/06/04 01:35:53;;;;;;;14.75;11.65;;;;;;;;;;6277097;22;20022;-82
2023/06/04 01:38:19;;;;;;;22.02;12.63;;;;;;;;;;6304522;22;20019;-82
2023/06/04 01:40:46;;;;;;;17.70;11.30;;;;;;;;;;6305144;22;20019;-82
2023/06/04 01:43:12;;;;;;;17.75;9.18;;;;;;;;;;6251806;22;20049;-82
2023/06/04 01:45:38;;;;;;;19.02;11.23;;;;;;;;;;6277283;22;20046;-82
2023/06/04 01:48:05;;;;;;;16.77;11.75;;;;;;;;;;6277235;22;20014;-82
2023/06/04 01:50:31;;;;;;;18.65;12.32;;;;;;;;;;6276527;22;20012;-82
2023/06/04 01:52:57;;;;;;;15.57;9.82;;;;;;;;;;6304784;22;20023;-82
2023/06/04 01:55:25;;;;;;;15.27;10.25;;;;;;;;;;6251382;22;20015;-82
2023/06/04 01:57:51;;;;;;;17.00;10.95;;;;;;;;;;6251623;22;20065;-82
2023/06/04 02:00:17;;;;;;;18.17;8.77;;;;;;;;;;6304961;22;20022;-82
2023/06/04 02:02:45;;;;;;;16.67;11.45;;;;;;;;;;6251381;22;20453;-82
2023/06/04 02:05:11;;;;;;;21.73;12.52;;;;;;;;;;6304201;22;20018;-82
2023/06/04 02:07:38;;;;;;;16.65;12.90;;;;;;;;;;6277414;22;20098;-82
2023/06/04 02:10:25;;;;;;;16.75;11.80;;;;;;;;;;6277194;22;20015;-82
2023/06/04 02:12:55;;;;;;;18.23;9.20;;;;;;;;;;6251653;22;20099;-82
2023/06/04 02:15:22;;;;;;;18.63;11.73;;;;;;;;;;6277181;22;20114;-82
2023/06/04 02:17:50;;;;;;;21.02;10.18;;;;;;;;;;6277140;22;20018;-82
2023/06/04 02:20:16;;;;;;;18.25;9.25;;;;;;;;;;6276547;22;20011;-82
2023/06/04 02:22:42;;;;;;;14.30;12.80;;;;;;;;;;6277408;22;20090;-82
2023/06/04 02:25:09;;;;;;;17.45;9.70;;;;;;;;;;6304865;22;20008;-82
2023/06/04 02:27:35;;;;;;;17.92;11.05;;;;;;;;;;6277598;22;20015;-82
2023/06/04 02:30:01;;;;;;;21.95;13.10;;;;;;;;;;6304750;22;20007;-82
2023/06/04 02:32:28;;;;;;;14.95;10.93;;;;;;;;;;6277063;22;20086;-83
2023/06/04 02:34:55;;;;;;;16.15;13.88;;;;;;;;;;6252199;22;20064;-82
2023/06/04 02:37:22;;;;;;;14.73;11.25;;;;;;;;;;6279016;22;20383;-82
2023/06/04 02:39:48;;;;;;;15.25;12.50;;;;;;;;;;6306708;22;20014;-82
2023/06/04 02:42:14;;;;;;;14.98;10.82;;;;;;;;;;6306765;22;20019;-82
2023/06/04 02:44:40;;;;;;;17.85;11.18;;;;;;;;;;6253195;22;20023;-82
2023/06/04 02:47:06;;;;;;;17.55;13.63;;;;;;;;;;6278855;22;20033;-82
2023/06/04 02:49:32;;;;;;;17.92;11.23;;;;;;;;;;6305797;22;20015;-82
2023/06/04 02:51:58;;;;;;;18.08;13.77;;;;;;;;;;6279309;22;20023;-82
2023/06/04 02:54:24;;;;;;;17.25;12.95;;;;;;;;;;6252879;22;20450;-82
2023/06/04 02:56:51;;;;;;;25.75;10.85;;;;;;;;;;6306660;22;20386;-82
2023/06/04 02:59:17;;;;;;;14.95;10.98;;;;;;;;;;6253040;22;20011;-82
2023/06/04 03:01:43;;;;;;;20.08;10.73;;;;;;;;;;6278436;22;20091;-82
2023/06/04 03:04:10;;;;;;;20.17;12.25;;;;;;;;;;6278064;22;20014;-82
2023/06/04 03:06:38;;;;;;;16.70;12.05;;;;;;;;;;6253243;22;20485;-82
2023/06/04 03:09:04;;;;;;;17.95;12.57;;;;;;;;;;6305905;22;20434;-82
2023/06/04 03:11:30;;;;;;;24.42;12.00;;;;;;;;;;6278701;22;20049;-82
2023/06/04 03:13:56;;;;;;;16.42;11.63;;;;;;;;;;6306424;22;20011;-82
2023/06/04 03:16:23;;;;;;;19.30;12.38;;;;;;;;;;6252853;22;20015;-82
2023/06/04 03:18:49;;;;;;;18.70;11.85;;;;;;;;;;6305670;22;20019;-82
2023/06/04 03:21:16;;;;;;;17.95;12.55;;;;;;;;;;6306336;22;20011;-82
2023/06/04 03:23:44;;;;;;;17.95;12.25;;;;;;;;;;6306196;22;20026;-82
2023/06/04 03:26:12;;;;;;;22.60;11.25;;;;;;;;;;6278499;22;20142;-82
2023/06/04 03:28:39;;;;;;;16.00;11.00;;;;;;;;;;6278569;22;20011;-82
2023/06/04 03:31:05;;;;;;;19.63;11.95;;;;;;;;;;6305481;22;20011;-82
2023/06/04 03:33:31;;;;;;;18.98;12.05;;;;;;;;;;6252956;22;20512;-82
2023/06/04 03:35:59;;;;;;;20.10;13.35;;;;;;;;;;6278352;22;20019;-82
2023/06/04 03:38:26;;;;;;;18.70;12.98;;;;;;;;;;6278392;22;20102;-82
2023/06/04 03:40:55;;;;;;;14.25;11.75;;;;;;;;;;6278360;22;20089;-82
2023/06/04 03:43:21;;;;;;;20.80;12.30;;;;;;;;;;6252738;22;20015;-82
2023/06/04 03:45:47;;;;;;;19.83;16.55;;;;;;;;;;6304959;22;20514;-82
2023/06/04 03:48:13;;;;;;;20.63;14.45;;;;;;;;;;6278147;22;20046;-82
2023/06/04 03:50:39;;;;;;;16.92;12.68;;;;;;;;;;6252441;22;20012;-82
2023/06/04 03:53:06;;;;;;;19.88;13.90;;;;;;;;;;6278365;22;20015;-82
2023/06/04 03:55:32;;;;;;;16.67;11.65;;;;;;;;;;6252721;22;20082;-82
2023/06/04 03:57:58;;;;;;;19.13;12.73;;;;;;;;;;6278365;22;20011;-83
2023/06/04 04:00:24;;;;;;;16.83;11.60;;;;;;;;;;6278013;22;20026;-82
2023/06/04 04:02:50;;;;;;;19.60;12.27;;;;;;;;;;6277997;22;20011;-82
2023/06/04 04:05:16;;;;;;;15.18;11.73;;;;;;;;;;6252719;22;20015;-82
2023/06/04 04:07:42;;;;;;;18.48;12.13;;;;;;;;;;6252416;22;20106;-82
2023/06/04 04:10:09;;;;;;;15.40;11.30;;;;;;;;;;6278496;22;20086;-82
2023/06/04 04:12:35;;;;;;;17.15;11.45;;;;;;;;;;6278091;22;20518;-82
2023/06/04 04:15:02;;;;;;;15.43;10.75;;;;;;;;;;6252072;22;20086;-82
2023/06/04 04:17:28;;;;;;;16.75;12.05;;;;;;;;;;6278282;22;20018;-82
2023/06/04 04:19:54;;;;;;;13.88;9.90;;;;;;;;;;6305659;22;20011;-82
2023/06/04 04:22:20;;;;;;;21.38;10.18;;;;;;;;;;6278426;22;20011;-82
2023/06/04 04:24:46;;;;;;;14.85;11.10;;;;;;;;;;6278321;22;20019;-82
2023/06/04 04:27:12;;;;;;;15.63;10.73;;;;;;;;;;6305384;22;20095;-82
2023/06/04 04:29:38;;;;;;;17.40;10.85;;;;;;;;;;6277650;22;20045;-82
2023/06/04 04:32:11;;;;;;;17.80;11.20;;;;;;;;;;6278296;22;20018;-82
2023/06/04 04:34:39;;;;;;;18.35;10.60;;;;;;;;;;6277699;22;20506;-82
2023/06/04 04:37:08;;;;;;;20.40;11.93;;;;;;;;;;6277659;22;20046;-82
2023/06/04 04:39:34;;;;;;;18.10;11.82;;;;;;;;;;6252079;22;20011;-83
2023/06/04 04:42:00;;;;;;;22.90;10.98;;;;;;;;;;6252148;22;20011;-82
2023/06/04 04:44:26;;;;;;;18.52;11.23;;;;;;;;;;6251689;22;20096;-83
2023/06/04 04:46:52;;;;;;;22.50;11.30;;;;;;;;;;6277621;22;20050;-83
2023/06/04 04:49:18;;;;;;;15.30;11.05;;;;;;;;;;6277783;22;20016;-82
2023/06/04 04:51:44;;;;;;;19.63;10.93;;;;;;;;;;6251656;22;20022;-82
2023/06/04 04:54:10;;;;;;;16.42;10.32;;;;;;;;;;6251196;22;20015;-82
2023/06/04 04:56:36;;;;;;;20.48;10.48;;;;;;;;;;6276722;22;20023;-83
2023/06/04 04:59:02;;;;;;;16.73;9.18;;;;;;;;;;6276848;22;20389;-83
2023/06/04 05:01:28;;;;;;;19.45;10.20;;;;;;;;;;6251577;22;20011;-82
2023/06/04 05:03:55;;;;;;;19.88;9.55;;;;;;;;;;6277261;22;20061;-84
2023/06/04 05:06:21;;;;;;;16.17;10.15;;;;;;;;;;6251233;22;20022;-83
2023/06/04 05:08:47;;;;;;;18.73;9.80;;;;;;;;;;6305111;22;20368;-84
2023/06/04 05:11:13;;;;;;;16.23;9.15;;;;;;;;;;6277112;22;20012;-83
2023/06/04 05:13:41;;;;;;;15.60;8.95;;;;;;;;;;6251201;22;20501;-83
2023/06/04 05:16:07;;;;;;;13.55;9.23;;;;;;;;;;6251892;22;20015;-83
2023/06/04 05:18:44;;;;;;;16.52;8.52;;;;;;;;;;6277831;22;20041;-83
2023/06/04 05:21:11;;;;;;;11.18;6.22;;;;;;;;;;6304708;22;20011;-83
2023/06/04 05:23:38;;;;;;;15.02;5.18;;;;;;;;;;6304981;22;20090;-83
2023/06/04 05:26:04;;;;;;;13.93;6.10;;;;;;;;;;6277200;22;20023;-81
2023/06/04 05:28:32;;;;;;;12.93;9.10;;;;;;;;;;6276499;22;20015;-81
2023/06/04 05:30:59;;;;;;;16.70;8.63;;;;;;;;;;6277651;22;20144;-81
2023/06/04 05:33:30;;;;;;;16.17;8.13;;;;;;;;;;6277618;22;20011;-81
2023/06/04 05:35:59;;;;;;;14.05;6.07;;;;;;;;;;6251663;22;20087;-81
2023/06/04 05:38:26;;;;;;;10.82;5.13;;;;;;;;;;6251220;22;20442;-81
2023/06/04 05:40:55;;;;;;;14.15;10.20;;;;;;;;;;6277597;22;20015;-81
2023/06/04 05:43:21;;;;;;;19.75;18.08;;;;;;;;;;6304469;22;20037;-80
2023/06/04 05:45:47;;;;;;;30.77;28.27;;;;;;;;;;6304480;22;20342;-81
2023/06/04 05:48:13;;;;;;;42.70;39.42;;;;;;;;;;6251856;22;20007;-81
2023/06/04 05:50:39;;;;;;;101.90;95.90;;;;;;;;;;6276845;22;20299;-80
2023/06/04 05:53:05;;;;;;;224.80;210.95;;;;;;;;;;6277199;22;20011;-81
2023/06/04 05:55:31;;;;;;;674.33;622.08;;;;;;;;;;6276755;22;20442;-81
2023/06/04 05:57:57;;;;;;;870.00;796.30;;;;;;;;;;6276668;22;20019;-81
2023/06/04 06:00:24;;;;;;;918.40;837.63;;;;;;;;;;6251673;22;20484;-81
2023/06/04 06:02:50;;;;;;;1031.25;928.15;;;;;;;;;;6251244;22;20023;-82
2023/06/04 06:05:17;;;;;;;1082.38;965.17;;;;;;;;;;6251459;22;20026;-82
2023/06/04 06:07:43;;;;;;;1100.75;980.30;;;;;;;;;;6277222;22;20072;-81
2023/06/04 06:10:09;;;;;;;1177.85;996.35;;;;;;;;;;6278782;22;20510;-82
2023/06/04 06:12:35;;;;;;;1372.25;999.90;;;;;;;;;;6278535;22;20012;-81
2023/06/04 06:15:01;;;;;;;1378.95;999.90;;;;;;;;;;6253649;22;20022;-82
2023/06/04 06:17:28;;;;;;;1588.25;999.90;;;;;;;;;;6306482;22;20338;-81
2023/06/04 06:19:55;;;;;;;1921.00;999.90;;;;;;;;;;6279272;22;20333;-82
2023/06/04 06:22:21;;;;;;;1999.90;999.90;;;;;;;;;;6279182;22;20345;-81
2023/06/04 06:24:48;;;;;;;1999.90;999.90;;;;;;;;;;6279187;22;20023;-81
2023/06/04 06:27:15;;;;;;;1999.90;999.90;;;;;;;;;;6253205;22;20061;-81
2023/06/04 06:29:42;;;;;;;1999.90;999.90;;;;;;;;;;6306876;22;20334;-80
2023/06/04 06:32:08;;;;;;;1999.90;999.90;;;;;;;;;;6279014;22;20090;-81
2023/06/04 06:34:34;;;;;;;1999.90;999.90;;;;;;;;;;6278972;22;20027;-81
2023/06/04 06:37:00;;;;;;;1999.90;999.90;;;;;;;;;;6278906;22;20007;-82
2023/06/04 06:39:26;;;;;;;1999.90;999.90;;;;;;;;;;6279301;22;20430;-83
2023/06/04 06:41:52;;;;;;;1999.90;999.90;;;;;;;;;;6305994;22;20091;-81
2023/06/04 06:44:18;;;;;;;1999.90;999.90;;;;;;;;;;6279387;22;20434;-81
2023/06/04 06:46:44;;;;;;;1999.90;999.90;;;;;;;;;;6278938;22;20017;-79
2023/06/04 06:49:10;;;;;;;1999.90;999.90;;;;;;;;;;6306103;22;20060;-80
2023/06/04 06:51:36;;;;;;;1999.90;999.90;;;;;;;;;;6278876;22;20506;-87
2023/06/04 06:54:02;;;;;;;1999.90;999.90;;;;;;;;;;6276792;22;20054;-87
2023/06/04 06:56:30;;;;;;;1999.90;999.90;;;;;;;;;;6304622;22;20102;-83
2023/06/04 06:58:56;;;;;;;1999.90;999.90;;;;;;;;;;6277115;22;20499;-78
2023/06/04 07:01:22;;;;;;;1999.90;999.90;;;;;;;;;;6304240;22;20019;-81
2023/06/04 07:03:48;;;;;;;1999.90;999.90;;;;;;;;;;6304720;22;20011;-81
2023/06/04 07:06:14;;;;;;;1999.90;999.90;;;;;;;;;;6276855;22;20019;-81
2023/06/04 07:08:42;;;;;;;1999.90;999.90;;;;;;;;;;6250502;22;20038;-81
2023/06/04 07:11:11;;;;;;;1999.90;999.90;;;;;;;;;;6276872;22;20315;-81
2023/06/04 07:13:37;;;;;;;1999.90;999.90;;;;;;;;;;6276974;22;20096;-81
2023/06/04 07:16:03;;;;;;;1999.90;999.90;;;;;;;;;;6277091;22;20012;-81
2023/06/04 07:18:29;;;;;;;1999.90;999.90;;;;;;;;;;6275352;22;20083;-81
2023/06/04 07:20:55;;;;;;;1999.90;999.90;;;;;;;;;;6301667;22;20395;-82
2023/06/04 07:23:21;;;;;;;1999.90;999.90;;;;;;;;;;6273549;22;20022;-82
2023/06/04 07:25:47;;;;;;;1999.90;999.90;;;;;;;;;;6274197;22;20022;-81
2023/06/04 07:28:13;;;;;;;1999.90;999.90;;;;;;;;;;6274168;22;20019;-81
2023/06/04 07:30:39;;;;;;;1999.90;999.90;;;;;;;;;;6274348;22;20082;-81
2023/06/04 07:33:06;;;;;;;1999.90;999.90;;;;;;;;;;6303198;22;20042;-81
2023/06/04 07:35:32;;;;;;;1999.90;999.90;;;;;;;;;;6304513;22;20023;-81
2023/06/04 07:37:58;;;;;;;1999.90;999.90;;;;;;;;;;6303997;22;20011;-81
2023/06/04 07:40:24;;;;;;;1999.90;999.90;;;;;;;;;;6304254;22;20102;-81
2023/06/04 07:42:50;;;;;;;1999.90;999.90;;;;;;;;;;6304377;22;20031;-81
2023/06/04 07:45:16;;;;;;;1999.90;999.90;;;;;;;;;;6304207;22;20026;-81
2023/06/04 07:47:43;;;;;;;1999.90;999.90;;;;;;;;;;6276725;22;20019;-81
2023/06/04 07:50:09;;;;;;;1999.90;999.90;;;;;;;;;;6276835;22;20015;-81
2023/06/04 07:52:35;;;;;;;1999.90;999.90;;;;;;;;;;6250805;22;20381;-81
2023/06/04 07:55:01;;;;;;;1999.90;999.90;;;;;;;;;;6258827;22;1063730;-81
2023/06/04 07:57:27;;;;;;;1999.90;999.90;;;;;;;;;;6252723;22;20015;-81
2023/06/04 07:59:53;;;;;;;1999.90;999.90;;;;;;;;;;6278815;22;20483;-81
2023/06/04 08:02:19;;;;;;;1999.90;999.90;;;;;;;;;;6278663;22;20018;-80
2023/06/04 08:04:46;;;;;;;1999.90;999.90;;;;;;;;;;6278678;22;20329;-81
2023/06/04 08:07:12;;;;;;;1999.90;999.90;;;;;;;;;;6305364;22;20022;-81
2023/06/04 08:09:38;;;;;;;1999.90;999.90;;;;;;;;;;6278081;22;20284;-81
2023/06/04 08:12:05;;;;;;;1999.90;999.90;;;;;;;;;;6278406;22;20011;-81
2023/06/04 08:14:32;;;;;;;1999.90;999.90;;;;;;;;;;6253033;22;20049;-80
2023/06/04 08:16:58;;;;;;;1999.90;999.90;;;;;;;;;;6278017;22;20011;-81
2023/06/04 08:19:24;;;;;;;1999.90;999.90;;;;;;;;;;6305734;22;20011;-81
2023/06/04 08:21:50;;;;;;;1999.90;999.90;;;;;;;;;;6305162;22;20011;-81
2023/06/04 08:24:16;;;;;;;1999.90;999.90;;;;;;;;;;6252466;22;20094;-81
2023/06/04 08:26:42;;;;;;;1999.90;999.90;;;;;;;;;;6305608;22;20057;-81
2023/06/04 08:29:08;;;;;;;1999.90;999.90;;;;;;;;;;6277978;22;20022;-81
2023/06/04 08:31:34;;;;;;;1999.90;999.90;;;;;;;;;;6277543;22;20019;-81
2023/06/04 08:34:00;;;;;;;1999.90;999.90;;;;;;;;;;6278258;22;20438;-81
2023/06/04 08:36:27;;;;;;;1999.90;999.90;;;;;;;;;;6277451;22;20022;-80
2023/06/04 08:38:54;;;;;;;1999.90;999.90;;;;;;;;;;6305679;22;20018;-80
2023/06/04 08:41:21;;;;;;;1999.90;999.90;;;;;;;;;;6305648;22;20045;-80
2023/06/04 08:43:49;;;;;;;1999.90;999.90;;;;;;;;;;6305684;22;20065;-80
2023/06/04 08:46:16;;;;;;;1999.90;999.90;;;;;;;;;;6305712;22;20015;-80
2023/06/04 08:48:42;;;;;;;1999.90;999.90;;;;;;;;;;6278113;22;20395;-81
2023/06/04 08:51:09;;;;;;;1999.90;999.90;;;;;;;;;;6304670;22;20106;-80
2023/06/04 08:53:36;;;;;;;1999.90;999.90;;;;;;;;;;6277731;22;20022;-80
2023/06/04 08:56:02;;;;;;;1999.90;999.90;;;;;;;;;;6305505;22;20019;-81
2023/06/04 08:58:32;;;;;;;1999.90;999.90;;;;;;;;;;6305434;22;20011;-80
2023/06/04 09:00:58;;;;;;;1999.90;999.90;;;;;;;;;;6277714;22;20042;-81
2023/06/04 09:03:24;;;;;;;1999.90;999.90;;;;;;;;;;6277705;22;20268;-80
2023/06/04 09:05:51;;;;;;;1999.90;999.90;;;;;;;;;;6277133;22;20499;-80
2023/06/04 09:08:18;;;;;;;1999.90;999.90;;;;;;;;;;6277934;22;20342;-80
2023/06/04 09:10:46;;;;;;;1999.90;999.90;;;;;;;;;;6277634;22;20015;-81
2023/06/04 09:13:14;;;;;;;1999.90;999.90;;;;;;;;;;6277394;22;20357;-81
2023/06/04 09:15:39;;;;;;;1999.90;999.90;;;;;;;;;;6305346;22;20034;-81
2023/06/04 09:18:06;;;;;;;1999.90;999.90;;;;;;;;;;6277615;22;20037;-80
2023/06/04 09:20:32;;;;;;;1999.90;999.90;;;;;;;;;;6277094;22;20043;-80
2023/06/04 09:22:58;;;;;;;1999.90;999.90;;;;;;;;;;6305070;22;20011;-81
2023/06/04 09:25:28;;;;;;;1999.90;999.90;;;;;;;;;;6305148;22;20014;-81
2023/06/04 09:27:57;;;;;;;1999.90;999.90;;;;;;;;;;6305110;22;20013;-80
2023/06/04 09:30:24;;;;;;;1999.90;999.90;;;;;;;;;;6305374;22;20330;-80
2023/06/04 09:32:50;;;;;;;1999.90;999.90;;;;;;;;;;6305166;22;20011;-81
2023/06/04 09:35:19;;;;;;;1999.90;999.90;;;;;;;;;;6277183;22;20033;-81
2023/06/04 09:37:58;;;;;;;1999.90;999.90;;;;;;;;;;6277386;22;20019;-81
2023/06/04 09:40:24;;;;;;;1999.90;999.90;;;;;;;;;;6305135;22;20019;-80
2023/06/04 09:42:54;;;;;;;1999.90;999.90;;;;;;;;;;6277138;22;20087;-80
2023/06/04 09:45:30;;;;;;;1999.90;999.90;;;;;;;;;;6251958;22;20012;-81
2023/06/04 09:47:59;;;;;;;1982.45;999.90;;;;;;;;;;6251817;22;20254;-80
2023/06/04 09:50:28;;;;;;;1999.90;999.90;;;;;;;;;;6251077;22;20069;-81
2023/06/04 09:52:54;;;;;;;1999.90;999.90;;;;;;;;;;6277157;22;20015;-81
2023/06/04 09:55:22;;;;;;;1999.90;999.90;;;;;;;;;;6251623;22;20401;-80
2023/06/04 09:57:49;;;;;;;1999.90;999.90;;;;;;;;;;6251637;22;20014;-80
2023/06/04 10:00:17;;;;;;;1827.05;999.90;;;;;;;;;;6305290;22;20007;-80
2023/06/04 10:02:43;;;;;;;1707.60;999.90;;;;;;;;;;6304387;22;20170;-80
2023/06/04 10:05:14;;;;;;;1393.97;999.90;;;;;;;;;;6277479;22;20145;-80
2023/06/04 10:07:40;;;;;;;1488.18;999.90;;;;;;;;;;6277160;22;20015;-80
2023/06/04 10:10:06;;;;;;;1387.38;999.90;;;;;;;;;;6277192;22;20090;-80
2023/06/04 10:12:36;;;;;;;1519.82;999.90;;;;;;;;;;6304840;22;20019;-80
2023/06/04 10:15:12;;;;;;;1236.05;999.90;;;;;;;;;;6304949;22;20073;-80
2023/06/04 10:17:39;;;;;;;1096.40;954.65;;;;;;;;;;6277042;22;20011;-80
2023/06/04 10:20:05;;;;;;;1230.32;999.30;;;;;;;;;;6277329;22;20011;-80
2023/06/04 10:22:32;;;;;;;1083.18;967.05;;;;;;;;;;6251595;22;20019;-80
2023/06/04 10:25:01;;;;;;;1087.88;970.35;;;;;;;;;;6251626;22;20315;-80
2023/06/04 10:27:28;;;;;;;1050.85;942.13;;;;;;;;;;6276984;22;20442;-80
2023/06/04 10:29:55;;;;;;;1029.53;926.90;;;;;;;;;;6251666;22;20022;-80
2023/06/04 10:32:21;;;;;;;1019.53;920.55;;;;;;;;;;6251379;22;20012;-80
2023/06/04 10:34:48;;;;;;;1000.55;903.78;;;;;;;;;;6251398;22;20343;-80
2023/06/04 10:37:29;;;;;;;987.30;894.80;;;;;;;;;;6251639;22;20049;-80
2023/06/04 10:39:56;;;;;;;1002.30;906.17;;;;;;;;;;6251598;22;20357;-80
2023/06/04 10:42:22;;;;;;;885.20;808.60;;;;;;;;;;6251496;22;20011;-80
2023/06/04 10:44:52;;;;;;;971.72;882.67;;;;;;;;;;6251441;22;20022;-80
2023/06/04 10:47:30;;;;;;;964.55;874.63;;;;;;;;;;6276444;22;20014;-80
2023/06/04 10:50:06;;;;;;;950.88;865.22;;;;;;;;;;6276915;22;20086;-80
2023/06/04 10:52:32;;;;;;;948.90;863.13;;;;;;;;;;6277450;22;20015;-80
2023/06/04 10:55:05;;;;;;;922.22;840.08;;;;;;;;;;6251440;22;20465;-80
2023/06/04 10:57:31;;;;;;;903.72;825.97;;;;;;;;;;6253297;22;20015;-80
2023/06/04 10:59:58;;;;;;;939.40;856.55;;;;;;;;;;6278654;22;20015;-80
2023/06/04 11:02:25;;;;;;;919.70;839.10;;;;;;;;;;6305710;22;20012;-80
2023/06/04 11:05:09;;;;;;;875.08;802.20;;;;;;;;;;6252957;22;20054;-80
2023/06/04 11:07:46;;;;;;;871.03;798.67;;;;;;;;;;6278853;22;20008;-80
2023/06/04 11:10:12;;;;;;;895.83;820.40;;;;;;;;;;6278790;22;20110;-80
2023/06/04 11:12:46;;;;;;;880.45;806.33;;;;;;;;;;6252932;22;20012;-79
2023/06/04 11:15:12;;;;;;;861.92;791.05;;;;;;;;;;6278181;22;20019;-80
2023/06/04 11:17:38;;;;;;;880.10;806.40;;;;;;;;;;6253102;22;20007;-80
2023/06/04 11:20:06;;;;;;;896.58;820.58;;;;;;;;;;6278453;22;20082;-80
2023/06/04 11:22:33;;;;;;;906.97;828.05;;;;;;;;;;6278487;22;20042;-79
2023/06/04 11:25:00;;;;;;;899.58;820.72;;;;;;;;;;6253092;22;20018;-80
2023/06/04 11:27:26;;;;;;;890.85;817.13;;;;;;;;;;6278961;22;20016;-81
2023/06/04 11:29:52;;;;;;;877.50;804.95;;;;;;;;;;6278378;22;20507;-80
2023/06/04 11:32:22;;;;;;;909.60;832.45;;;;;;;;;;6253721;22;20325;-81
2023/06/04 11:34:48;;;;;;;896.85;820.65;;;;;;;;;;6278603;22;20018;-80
2023/06/04 11:37:14;;;;;;;923.85;843.15;;;;;;;;;;6278623;22;20011;-80
2023/06/04 11:39:42;;;;;;;928.60;847.70;;;;;;;;;;6278934;22;20011;-80
2023/06/04 11:42:09;;;;;;;940.55;856.45;;;;;;;;;;6278991;22;20299;-81
2023/06/04 11:44:35;;;;;;;905.10;826.95;;;;;;;;;;6278014;22;20015;-81
2023/06/04 11:47:01;;;;;;;942.92;859.40;;;;;;;;;;6278434;22;20047;-81
2023/06/04 11:49:28;;;;;;;953.83;867.97;;;;;;;;;;6306332;22;20082;-80
2023/06/04 11:51:54;;;;;;;929.95;848.35;;;;;;;;;;6278960;22;20015;-81
2023/06/04 11:54:21;;;;;;;938.72;854.47;;;;;;;;;;6278282;22;20015;-81
2023/06/04 11:56:49;;;;;;;925.65;845.88;;;;;;;;;;6278516;22;20011;-81
2023/06/04 11:59:17;;;;;;;922.80;842.67;;;;;;;;;;6252238;22;20116;-80
2023/06/04 12:01:43;;;;;;;901.35;824.63;;;;;;;;;;6252678;22;20015;-81
2023/06/04 12:04:13;;;;;;;920.47;839.63;;;;;;;;;;6278470;22;20015;-81
2023/06/04 12:06:39;;;;;;;902.70;826.88;;;;;;;;;;6278792;22;20017;-81
2023/06/04 12:09:05;;;;;;;886.90;812.65;;;;;;;;;;6252850;22;20141;-81
2023/06/04 12:11:32;;;;;;;882.85;809.13;;;;;;;;;;6252734;22;20015;-82
2023/06/04 12:13:59;;;;;;;908.13;829.40;;;;;;;;;;6277803;22;20015;-81
2023/06/04 12:16:26;;;;;;;868.00;797.70;;;;;;;;;;6278334;22;20030;-81
2023/06/04 12:18:52;;;;;;;873.65;800.67;;;;;;;;;;6306107;22;20189;-81
2023/06/04 12:21:26;;;;;;;883.50;809.42;;;;;;;;;;6305854;22;20008;-81
2023/06/04 12:24:06;;;;;;;827.42;762.67;;;;;;;;;;6305810;22;20114;-81
2023/06/04 12:26:37;;;;;;;893.17;818.03;;;;;;;;;;6305855;22;20018;-81
2023/06/04 12:29:07;;;;;;;891.47;815.63;;;;;;;;;;6305276;22;20017;-81
2023/06/04 12:31:33;;;;;;;839.35;771.22;;;;;;;;;;6277892;22;20109;-81
2023/06/04 12:34:00;;;;;;;867.90;796.88;;;;;;;;;;6252266;22;20015;-81
2023/06/04 12:36:26;;;;;;;868.97;797.38;;;;;;;;;;6305663;22;20011;-81
2023/06/04 12:38:52;;;;;;;859.55;789.65;;;;;;;;;;6277783;22;20088;-81
2023/06/04 12:41:18;;;;;;;873.47;801.78;;;;;;;;;;6305689;22;20011;-81
2023/06/04 12:43:45;;;;;;;925.05;845.30;;;;;;;;;;6251371;22;20011;-81
2023/06/04 12:46:10;;;;;;;891.55;816.83;;;;;;;;;;6277147;22;20446;-81
2023/06/04 12:48:36;;;;;;;938.60;855.72;;;;;;;;;;6277565;22;20029;-81
2023/06/04 12:51:02;;;;;;;942.38;857.72;;;;;;;;;;6252202;22;20069;-81
2023/06/04 12:53:28;;;;;;;955.55;868.03;;;;;;;;;;6305069;22;20069;-81
2023/06/04 12:55:54;;;;;;;936.25;854.97;;;;;;;;;;6277693;22;20015;-81
2023/06/04 12:58:20;;;;;;;906.58;828.53;;;;;;;;;;6304517;22;20082;-81
2023/06/04 13:00:46;;;;;;;956.05;871.80;;;;;;;;;;6304975;22;20446;-82
2023/06/04 13:03:12;;;;;;;943.53;859.47;;;;;;;;;;6304536;22;20027;-81
2023/06/04 13:05:38;;;;;;;936.80;854.00;;;;;;;;;;6304626;22;20011;-81
2023/06/04 13:08:04;;;;;;;913.58;835.72;;;;;;;;;;6304691;22;20011;-81
2023/06/04 13:10:30;;;;;;;924.13;842.92;;;;;;;;;;6304771;22;20030;-81
2023/06/04 13:12:57;;;;;;;917.30;836.40;;;;;;;;;;6304010;22;20011;-81
2023/06/04 13:15:23;;;;;;;916.33;837.67;;;;;;;;;;6304943;22;20057;-81
2023/06/04 13:17:49;;;;;;;923.53;843.13;;;;;;;;;;6303906;22;20452;-81
2023/06/04 13:20:15;;;;;;;912.60;833.25;;;;;;;;;;6251280;22;20449;-81
2023/06/04 13:22:43;;;;;;;912.75;834.92;;;;;;;;;;6304639;22;20061;-81
2023/06/04 13:25:09;;;;;;;906.75;828.35;;;;;;;;;;6277083;22;20380;-81
2023/06/04 13:27:35;;;;;;;882.13;808.83;;;;;;;;;;6276229;22;20026;-81
2023/06/04 13:30:01;;;;;;;918.20;839.00;;;;;;;;;;6277515;22;20046;-80
2023/06/04 13:32:27;;;;;;;919.75;840.47;;;;;;;;;;6304676;22;20441;-80
2023/06/04 13:34:53;;;;;;;928.33;847.42;;;;;;;;;;6276536;22;20018;-81
2023/06/04 13:37:19;;;;;;;940.72;858.58;;;;;;;;;;6251263;22;20120;-80
2023/06/04 13:39:45;;;;;;;944.85;860.45;;;;;;;;;;6276743;22;20422;-81
2023/06/04 13:42:11;;;;;;;956.45;869.55;;;;;;;;;;6250890;22;20095;-81
2023/06/04 13:44:37;;;;;;;948.03;863.20;;;;;;;;;;6276750;22;20264;-81
2023/06/04 13:47:04;;;;;;;932.75;851.10;;;;;;;;;;6251057;22;20079;-81
2023/06/04 13:49:31;;;;;;;956.05;870.70;;;;;;;;;;6276879;22;20015;-81
2023/06/04 13:51:57;;;;;;;901.83;823.00;;;;;;;;;;6276640;22;20090;-81
2023/06/04 13:54:23;;;;;;;867.53;795.97;;;;;;;;;;6276211;22;20442;-81
2023/06/04 13:56:49;;;;;;;888.63;813.72;;;;;;;;;;6250492;22;20011;-81
2023/06/04 13:59:15;;;;;;;899.42;823.55;;;;;;;;;;6276502;22;20080;-81